createdAt,value
2022-09-20T00:01:12.543Z,13.50
2022-09-20T00:03:41.739Z,13.50
2022-09-20T00:06:11.075Z,13.50
2022-09-20T00:08:38.854Z,13.50
2022-09-20T00:11:07.696Z,13.50
2022-09-20T00:13:35.328Z,13.50
2022-09-20T00:16:09.276Z,13.40
2022-09-20T00:18:36.861Z,13.40
2022-09-20T00:21:04.836Z,13.30
2022-09-20T00:23:32.677Z,13.20
2022-09-20T00:26:04.038Z,13.20
2022-09-20T00:28:32.008Z,13.20
2022-09-20T00:30:58.663Z,13.10
2022-09-20T00:33:48.684Z,13.10
2022-09-20T00:36:16.276Z,13.10
2022-09-20T00:38:42.897Z,13.10
2022-09-20T00:41:09.573Z,13.10
2022-09-20T00:43:40.516Z,13.20
2022-09-20T00:46:21.190Z,13.20
2022-09-20T00:48:49.319Z,13.20
2022-09-20T00:51:22.407Z,13.20
2022-09-20T00:53:51.272Z,13.20
2022-09-20T00:56:24.138Z,13.10
2022-09-20T00:59:06.273Z,13.20
2022-09-20T01:01:33.431Z,13.20
2022-09-20T01:04:00.917Z,13.20
2022-09-20T01:06:28.573Z,13.20
2022-09-20T01:08:58.053Z,13.10
2022-09-20T01:11:26.070Z,13.10
2022-09-20T01:13:52.709Z,13.10
2022-09-20T01:16:20.445Z,13.10
2022-09-20T01:18:49.343Z,13.00
2022-09-20T01:21:17.622Z,13.00
2022-09-20T01:24:12.310Z,13.00
2022-09-20T01:26:41.845Z,13.00
2022-09-20T01:29:34.954Z,13.00
2022-09-20T01:32:06.168Z,13.10
2022-09-20T01:34:46.791Z,13.10
2022-09-20T01:37:32.804Z,13.10
2022-09-20T01:40:13.013Z,13.10
2022-09-20T01:42:50.062Z,13.10
2022-09-20T01:45:31.723Z,13.10
2022-09-20T01:48:18.532Z,13.10
2022-09-20T01:50:50.873Z,13.00
2022-09-20T01:53:48.414Z,13.00
2022-09-20T01:56:42.968Z,13.00
2022-09-20T01:59:34.476Z,12.90
2022-09-20T02:02:01.107Z,12.80
2022-09-20T02:04:40.416Z,12.80
2022-09-20T02:07:44.432Z,12.70
2022-09-20T02:10:33.134Z,12.60
2022-09-20T02:13:06.560Z,12.60
2022-09-20T02:16:11.294Z,12.50
2022-09-20T02:19:12.109Z,12.50
2022-09-20T02:21:54.670Z,12.50
2022-09-20T02:24:50.732Z,12.50
2022-09-20T02:27:55.460Z,12.50
2022-09-20T02:30:40.541Z,12.40
2022-09-20T02:33:13.172Z,12.40
2022-09-20T02:35:57.757Z,12.40
2022-09-20T02:38:42.517Z,12.40
2022-09-20T02:41:20.982Z,12.40
2022-09-20T02:44:13.329Z,12.40
2022-09-20T02:47:11.456Z,12.30
2022-09-20T02:49:56.791Z,12.40
2022-09-20T02:52:30.901Z,12.30
2022-09-20T02:55:06.451Z,12.30
2022-09-20T02:57:39.163Z,12.10
2022-09-20T03:00:19.250Z,12.00
2022-09-20T03:02:58.177Z,12.00
2022-09-20T03:05:57.216Z,12.00
2022-09-20T03:08:33.320Z,12.00
2022-09-20T03:11:26.932Z,12.00
2022-09-20T03:14:30.905Z,12.00
2022-09-20T03:17:22.171Z,11.90
2022-09-20T03:19:56.741Z,11.90
2022-09-20T03:23:01.729Z,11.80
2022-09-20T03:25:49.681Z,11.70
2022-09-20T03:28:44.728Z,11.50
2022-09-20T03:31:23.356Z,11.50
2022-09-20T03:34:08.846Z,11.60
2022-09-20T03:36:44.773Z,11.60
2022-09-20T03:39:36.340Z,11.50
2022-09-20T03:42:16.417Z,11.60
2022-09-20T03:45:13.913Z,11.60
2022-09-20T03:47:49.384Z,11.50
2022-09-20T03:50:39.211Z,11.50
2022-09-20T03:53:05.731Z,11.50
2022-09-20T03:55:50.403Z,11.50
2022-09-20T03:58:48.624Z,11.60
2022-09-20T04:01:33.779Z,11.60
2022-09-20T04:04:12.316Z,11.50
2022-09-20T04:07:09.622Z,11.50
2022-09-20T04:09:54.693Z,11.40
2022-09-20T04:12:58.872Z,11.30
2022-09-20T04:15:34.408Z,11.40
2022-09-20T04:18:24.467Z,11.30
2022-09-20T04:21:00.148Z,11.30
2022-09-20T04:23:56.985Z,11.40
2022-09-20T04:26:29.488Z,11.40
2022-09-20T04:29:01.822Z,11.50
2022-09-20T04:31:45.424Z,11.40
2022-09-20T04:34:50.993Z,11.40
2022-09-20T04:37:29.706Z,11.40
2022-09-20T04:40:29.601Z,11.30
2022-09-20T04:43:10.690Z,11.20
2022-09-20T04:46:08.454Z,11.10
2022-09-20T04:49:04.310Z,11.10
2022-09-20T04:51:55.899Z,11.10
2022-09-20T04:54:44.521Z,11.10
2022-09-20T04:57:39.763Z,11.20
2022-09-20T05:00:14.749Z,11.20
2022-09-20T05:02:59.070Z,11.30
2022-09-20T05:05:39.029Z,11.30
2022-09-20T05:08:27.650Z,11.30
2022-09-20T05:11:12.725Z,11.30
2022-09-20T05:13:54.045Z,11.30
2022-09-20T05:17:07.052Z,11.40
2022-09-20T05:19:55.786Z,11.50
2022-09-20T05:22:42.355Z,11.40
2022-09-20T05:25:40.633Z,11.40
2022-09-20T05:28:39.339Z,11.40
2022-09-20T05:31:30.321Z,11.50
2022-09-20T05:34:31.832Z,11.60
2022-09-20T05:37:32.557Z,11.70
2022-09-20T05:40:33.155Z,11.70
2022-09-20T05:43:20.157Z,11.70
2022-09-20T05:46:00.839Z,11.70
2022-09-20T05:48:51.493Z,11.70
2022-09-20T05:51:32.232Z,11.80
2022-09-20T05:54:14.009Z,11.80
2022-09-20T05:57:03.641Z,11.80
2022-09-20T06:00:07.697Z,11.80
2022-09-20T06:02:51.514Z,11.80
2022-09-20T06:05:27.637Z,11.80
2022-09-20T06:08:23.225Z,11.90
2022-09-20T06:11:10.624Z,12.00
2022-09-20T06:14:31.747Z,12.00
2022-09-20T06:17:04.521Z,12.10
2022-09-20T06:19:41.322Z,12.20
2022-09-20T06:22:24.772Z,12.30
2022-09-20T06:25:09.698Z,12.30
2022-09-20T06:27:42.581Z,12.40
2022-09-20T06:30:18.051Z,12.40
2022-09-20T06:33:17.957Z,12.40
2022-09-20T06:36:24.616Z,12.50
2022-09-20T06:39:18.959Z,12.50
2022-09-20T06:41:46.033Z,12.60
2022-09-20T06:44:12.628Z,12.70
2022-09-20T06:46:41.186Z,12.70
2022-09-20T06:49:10.846Z,12.80
2022-09-20T06:51:39.098Z,12.80
2022-09-20T06:54:11.260Z,12.90
2022-09-20T06:56:38.434Z,13.00
2022-09-20T06:59:10.319Z,13.00
2022-09-20T07:01:37.449Z,13.00
2022-09-20T07:04:06.033Z,13.10
2022-09-20T07:06:33.647Z,13.20
2022-09-20T07:09:00.304Z,13.20
2022-09-20T07:11:26.982Z,13.20
2022-09-20T07:13:55.523Z,13.30
2022-09-20T07:16:22.470Z,13.30
2022-09-20T07:18:49.380Z,13.30
2022-09-20T07:21:18.527Z,13.30
2022-09-20T07:23:45.776Z,13.30
2022-09-20T07:26:21.281Z,13.40
2022-09-20T07:28:49.298Z,13.40
2022-09-20T07:31:20.810Z,13.40
2022-09-20T07:33:47.462Z,13.50
2022-09-20T07:36:14.484Z,13.50
2022-09-20T07:38:41.950Z,13.50
2022-09-20T07:41:09.305Z,13.50
2022-09-20T07:43:36.030Z,13.60
2022-09-20T07:46:02.807Z,13.60
2022-09-20T07:48:31.925Z,13.70
2022-09-20T07:51:04.751Z,13.70
2022-09-20T07:53:34.994Z,13.80
2022-09-20T07:56:06.063Z,13.90
2022-09-20T07:58:35.081Z,13.90
2022-09-20T08:01:04.553Z,13.90
2022-09-20T08:03:32.854Z,14.00
2022-09-20T08:06:10.205Z,14.00
2022-09-20T08:08:40.491Z,14.00
2022-09-20T08:11:08.260Z,14.00
2022-09-20T08:16:28.625Z,14.10
2022-09-20T08:18:57.720Z,14.30
2022-09-20T08:21:35.292Z,14.30
2022-09-20T08:24:03.825Z,14.20
2022-09-20T08:26:35.679Z,14.20
2022-09-20T08:29:03.132Z,14.30
2022-09-20T08:31:34.184Z,14.40
2022-09-20T08:34:06.311Z,14.40
2022-09-20T08:36:36.691Z,14.40
2022-09-20T08:41:56.661Z,14.40
2022-09-20T08:44:26.460Z,14.50
2022-09-20T08:47:18.956Z,14.60
2022-09-20T08:49:46.682Z,14.70
2022-09-20T08:52:18.867Z,14.70
2022-09-20T08:54:45.598Z,14.70
2022-09-20T08:57:17.453Z,14.80
2022-09-20T08:59:44.827Z,14.90
2022-09-20T09:02:20.559Z,14.90
2022-09-20T09:04:49.681Z,14.80
2022-09-20T09:07:20.872Z,14.80
2022-09-20T09:09:50.364Z,14.80
2022-09-20T09:12:27.024Z,14.80
2022-09-20T09:14:59.222Z,14.80
2022-09-20T09:17:28.634Z,14.80
2022-09-20T09:19:56.651Z,14.90
2022-09-20T09:22:43.957Z,14.80
2022-09-20T09:25:22.264Z,14.80
2022-09-20T09:27:54.975Z,14.60
2022-09-20T09:30:26.892Z,14.50
2022-09-20T09:33:26.393Z,14.40
2022-09-20T09:35:54.045Z,14.30
2022-09-20T09:38:24.038Z,14.30
2022-09-20T09:40:54.135Z,14.30
2022-09-20T09:43:26.976Z,14.20
2022-09-20T09:45:54.374Z,14.10
2022-09-20T09:48:23.995Z,14.00
2022-09-20T09:50:53.269Z,13.80
2022-09-20T09:53:22.793Z,13.80
2022-09-20T09:56:01.975Z,13.80
2022-09-20T09:58:44.003Z,13.80
2022-09-20T10:01:34.085Z,13.80
2022-09-20T10:04:12.448Z,13.90
2022-09-20T10:06:52.372Z,14.10
2022-09-20T10:09:57.068Z,14.10
2022-09-20T10:12:36.933Z,14.10
2022-09-20T10:15:33.081Z,14.20
2022-09-20T10:18:24.383Z,14.20
2022-09-20T10:21:02.963Z,14.20
2022-09-20T10:24:11.227Z,14.20
2022-09-20T10:27:02.131Z,14.30
2022-09-20T10:29:31.695Z,14.20
2022-09-20T10:32:14.113Z,14.20
2022-09-20T10:34:52.432Z,14.30
2022-09-20T10:37:49.154Z,14.50
2022-09-20T10:40:16.092Z,14.70
2022-09-20T10:43:16.995Z,14.80
2022-09-20T10:46:32.823Z,14.80
2022-09-20T10:49:17.997Z,14.70
2022-09-20T10:51:58.384Z,14.70
2022-09-20T10:54:55.849Z,14.70
2022-09-20T10:57:48.542Z,14.80
2022-09-20T11:00:33.693Z,14.80
2022-09-20T11:03:34.110Z,14.70
2022-09-20T11:06:25.899Z,14.80
2022-09-20T11:08:56.288Z,14.80
2022-09-20T11:11:32.819Z,14.70
2022-09-20T11:14:06.058Z,14.60
2022-09-20T11:16:39.107Z,14.60
2022-09-20T11:19:14.423Z,14.60
2022-09-20T11:21:54.158Z,14.60
2022-09-20T11:24:32.111Z,14.60
2022-09-20T11:27:18.828Z,14.60
2022-09-20T11:30:08.189Z,14.60
2022-09-20T11:32:55.021Z,14.60
2022-09-20T11:35:57.977Z,14.70
2022-09-20T11:38:53.042Z,14.70
2022-09-20T11:41:26.139Z,14.80
2022-09-20T11:43:55.613Z,14.80
2022-09-20T11:46:30.978Z,14.90
2022-09-20T11:49:05.663Z,14.90
2022-09-20T11:51:57.148Z,14.90
2022-09-20T11:54:41.060Z,15.00
2022-09-20T11:57:15.685Z,15.00
2022-09-20T11:59:50.332Z,15.00
2022-09-20T12:02:29.577Z,15.00
2022-09-20T12:04:56.545Z,15.00
2022-09-20T12:07:46.749Z,15.10
2022-09-20T12:10:35.164Z,15.10
2022-09-20T12:13:23.936Z,15.20
2022-09-20T12:16:08.662Z,15.30
2022-09-20T12:18:35.637Z,15.30
2022-09-20T12:21:07.221Z,15.30
2022-09-20T12:23:42.872Z,15.30
2022-09-20T12:26:13.394Z,15.40
2022-09-20T12:28:43.126Z,15.30
2022-09-20T12:31:21.682Z,15.20
2022-09-20T12:34:15.769Z,15.20
2022-09-20T12:36:46.128Z,15.20
2022-09-20T12:39:15.162Z,15.20
2022-09-20T12:41:59.549Z,15.30
2022-09-20T12:44:32.457Z,15.30
2022-09-20T12:47:19.110Z,15.20
2022-09-20T12:50:04.328Z,15.30
2022-09-20T12:52:53.698Z,15.20
2022-09-20T12:55:27.011Z,15.20
2022-09-20T12:58:03.546Z,15.20
2022-09-20T13:01:13.425Z,15.20
2022-09-20T13:03:46.803Z,15.20
2022-09-20T13:06:17.398Z,15.20
2022-09-20T13:09:02.196Z,15.10
2022-09-20T13:11:39.722Z,15.10
2022-09-20T13:14:09.224Z,15.20
2022-09-20T13:16:47.615Z,15.20
2022-09-20T13:19:28.953Z,15.20
2022-09-20T13:21:58.295Z,15.30
2022-09-20T13:24:27.232Z,15.30
2022-09-20T13:27:01.827Z,15.30
2022-09-20T13:29:39.846Z,15.30
2022-09-20T13:32:30.238Z,15.30
2022-09-20T13:35:19.361Z,15.30
2022-09-20T13:37:54.700Z,15.40
2022-09-20T13:40:32.018Z,15.40
2022-09-20T13:43:22.155Z,15.40
2022-09-20T13:45:54.116Z,15.40
2022-09-20T13:48:27.823Z,15.40
2022-09-20T13:50:55.568Z,15.40
2022-09-20T13:53:40.613Z,15.40
2022-09-20T13:56:25.903Z,15.50
2022-09-20T13:58:53.328Z,15.50
2022-09-20T14:01:32.330Z,15.40
2022-09-20T14:04:04.819Z,15.40
2022-09-20T14:06:32.274Z,15.30
2022-09-20T14:09:02.024Z,15.40
2022-09-20T14:11:31.005Z,15.40
2022-09-20T14:14:04.843Z,15.40
2022-09-20T14:16:50.405Z,15.50
2022-09-20T14:19:20.275Z,15.40
2022-09-20T14:21:47.974Z,15.40
2022-09-20T14:24:14.571Z,15.50
2022-09-20T14:26:42.866Z,15.50
2022-09-20T14:29:33.754Z,15.50
2022-09-20T14:32:20.666Z,15.40
2022-09-20T14:34:51.547Z,15.40
2022-09-20T14:37:36.393Z,15.40
2022-09-20T14:40:07.202Z,15.20
2022-09-20T14:42:40.773Z,15.20
2022-09-20T14:45:08.388Z,15.20
2022-09-20T14:47:40.143Z,15.20
2022-09-20T14:50:24.907Z,15.20
2022-09-20T14:53:05.812Z,15.30
2022-09-20T14:55:37.330Z,15.20
2022-09-20T14:58:15.369Z,15.20
2022-09-20T15:00:59.470Z,15.20
2022-09-20T15:03:38.815Z,15.20
2022-09-20T15:06:10.882Z,15.20
2022-09-20T15:08:41.670Z,15.30
2022-09-20T15:11:18.946Z,15.20
2022-09-20T15:13:45.999Z,15.20
2022-09-20T15:16:21.051Z,15.20
2022-09-20T15:18:47.724Z,15.20
2022-09-20T15:21:14.340Z,15.20
2022-09-20T15:23:41.187Z,15.20
2022-09-20T15:26:10.576Z,15.30
2022-09-20T15:28:37.418Z,15.30
2022-09-20T15:31:04.221Z,15.30
2022-09-20T15:33:32.303Z,15.30
2022-09-20T15:36:01.864Z,15.20
2022-09-20T15:38:28.580Z,15.30
2022-09-20T15:40:55.230Z,15.30
2022-09-20T15:43:25.694Z,15.30
2022-09-20T15:46:00.904Z,15.30
2022-09-20T15:48:30.395Z,15.30
2022-09-20T15:51:01.927Z,15.30
2022-09-20T15:53:36.875Z,15.30
2022-09-20T15:56:13.323Z,15.20
2022-09-20T15:58:46.103Z,15.20
2022-09-20T16:01:14.177Z,15.20
2022-09-20T16:03:40.925Z,15.10
2022-09-20T16:06:08.438Z,15.20
2022-09-20T16:08:37.971Z,15.20
2022-09-20T16:11:06.192Z,15.10
2022-09-20T16:13:33.063Z,15.00
2022-09-20T16:16:01.267Z,15.00
2022-09-20T16:18:47.202Z,15.00
2022-09-20T16:21:16.637Z,14.90
2022-09-20T16:23:48.278Z,14.90
2022-09-20T16:26:15.216Z,14.90
2022-09-20T16:28:47.232Z,14.90
2022-09-20T16:31:29.378Z,14.80
2022-09-20T16:33:56.524Z,14.90
2022-09-20T16:36:27.460Z,14.90
2022-09-20T16:38:55.665Z,14.90
2022-09-20T16:41:24.057Z,14.80
2022-09-20T16:43:52.126Z,14.80
2022-09-20T16:46:27.139Z,14.70
2022-09-20T16:48:55.482Z,14.70
2022-09-20T16:51:28.864Z,14.60
2022-09-20T16:53:56.029Z,14.60
2022-09-20T16:56:29.518Z,14.70
2022-09-20T16:58:56.383Z,14.70
2022-09-20T17:01:23.541Z,14.60
2022-09-20T17:03:50.318Z,14.60
2022-09-20T17:06:18.960Z,14.60
2022-09-20T17:08:48.550Z,14.60
2022-09-20T17:11:18.123Z,14.60
2022-09-20T17:13:45.577Z,14.60
2022-09-20T17:16:15.060Z,14.60
2022-09-20T17:18:43.161Z,14.60
2022-09-20T17:21:15.215Z,14.60
2022-09-20T17:23:48.681Z,14.60
2022-09-20T17:26:20.242Z,14.60
2022-09-20T17:28:49.609Z,14.60
2022-09-20T17:31:19.133Z,14.60
2022-09-20T17:33:45.862Z,14.60
2022-09-20T17:36:15.448Z,14.60
2022-09-20T17:38:42.251Z,14.60
2022-09-20T17:41:15.973Z,14.60
2022-09-20T17:43:43.599Z,14.60
2022-09-20T17:46:12.023Z,14.60
2022-09-20T17:48:39.952Z,14.60
2022-09-20T17:51:12.207Z,14.50
2022-09-20T17:53:39.177Z,14.50
2022-09-20T17:56:05.939Z,14.50
2022-09-20T17:58:35.593Z,14.50
2022-09-20T18:01:04.157Z,14.40
2022-09-20T18:03:34.782Z,14.40
2022-09-20T18:06:36.131Z,14.30
2022-09-20T18:09:09.150Z,14.30
2022-09-20T18:11:41.531Z,14.30
2022-09-20T18:14:15.987Z,14.30
2022-09-20T18:16:44.217Z,14.30
2022-09-20T18:19:11.237Z,14.20
2022-09-20T18:21:39.371Z,14.20
2022-09-20T18:24:07.433Z,14.20
2022-09-20T18:26:34.829Z,14.20
2022-09-20T18:29:12.732Z,14.20
2022-09-20T18:31:46.468Z,14.20
2022-09-20T18:34:21.871Z,14.20
2022-09-20T18:36:54.075Z,14.10
2022-09-20T18:39:21.888Z,14.10
2022-09-20T18:41:50.336Z,14.10
2022-09-20T18:44:20.957Z,14.00
2022-09-20T18:46:47.893Z,14.00
2022-09-20T18:49:16.769Z,14.00
2022-09-20T18:51:44.491Z,14.00
2022-09-20T18:54:12.377Z,14.00
2022-09-20T18:56:40.781Z,14.00
2022-09-20T18:59:18.060Z,14.00
2022-09-20T19:01:50.862Z,14.00
2022-09-20T19:04:42.298Z,13.90
2022-09-20T19:07:27.251Z,13.90
2022-09-20T19:09:56.639Z,13.90
2022-09-20T19:12:28.307Z,13.90
2022-09-20T19:15:19.543Z,13.90
2022-09-20T19:17:50.378Z,13.80
2022-09-20T19:20:28.442Z,13.90
2022-09-20T19:23:04.776Z,13.90
2022-09-20T19:25:43.946Z,13.90
2022-09-20T19:28:13.204Z,13.90
2022-09-20T19:30:42.320Z,13.90
2022-09-20T19:33:16.528Z,13.90
2022-09-20T19:35:51.376Z,13.90
2022-09-20T19:38:20.788Z,13.80
2022-09-20T19:41:07.684Z,13.90
2022-09-20T19:44:09.360Z,13.90
2022-09-20T19:47:01.868Z,13.90
2022-09-20T19:49:57.271Z,13.90
2022-09-20T19:52:24.333Z,13.80
2022-09-20T19:54:51.836Z,13.90
2022-09-20T19:57:22.037Z,13.90
2022-09-20T19:59:50.443Z,13.90
2022-09-20T20:02:18.381Z,13.80
2022-09-20T20:04:45.264Z,13.80
2022-09-20T20:07:24.750Z,13.80
2022-09-20T20:10:04.792Z,13.80
2022-09-20T20:12:44.592Z,13.70
2022-09-20T20:15:45.118Z,13.50
2022-09-20T20:18:52.773Z,13.40
2022-09-20T20:21:45.002Z,13.20
2022-09-20T20:24:30.459Z,13.20
2022-09-20T20:26:57.067Z,13.10
2022-09-20T20:29:23.673Z,13.10
2022-09-20T20:31:50.297Z,13.30
2022-09-20T20:34:17.512Z,13.30
2022-09-20T20:36:44.393Z,13.40
2022-09-20T20:39:11.731Z,13.40
2022-09-20T20:41:39.337Z,13.30
2022-09-20T20:44:06.238Z,13.20
2022-09-20T20:46:34.786Z,13.20
2022-09-20T20:49:03.016Z,13.20
2022-09-20T20:51:32.867Z,13.30
2022-09-20T20:53:59.702Z,13.30
2022-09-20T20:56:29.669Z,13.30
2022-09-20T20:59:00.714Z,13.20
2022-09-20T21:01:38.567Z,13.10
2022-09-20T21:04:07.804Z,13.00
2022-09-20T21:06:36.323Z,13.00
2022-09-20T21:09:05.091Z,13.00
2022-09-20T21:11:38.107Z,13.00
2022-09-20T21:14:07.041Z,13.00
2022-09-20T21:16:36.058Z,13.10
2022-09-20T21:19:04.409Z,12.90
2022-09-20T21:21:33.725Z,12.80
2022-09-20T21:24:03.742Z,12.90
2022-09-20T21:26:34.176Z,12.90
2022-09-20T21:29:02.666Z,12.90
2022-09-20T21:31:32.056Z,12.90
2022-09-20T21:33:59.091Z,12.80
2022-09-20T21:36:28.315Z,12.90
2022-09-20T21:38:55.667Z,12.80
2022-09-20T21:41:25.294Z,12.70
2022-09-20T21:43:57.084Z,12.80
2022-09-20T21:46:29.273Z,12.70
2022-09-20T21:48:57.561Z,12.60
2022-09-20T21:51:25.542Z,12.70
2022-09-20T21:53:54.198Z,12.70
2022-09-20T21:56:20.802Z,12.60
2022-09-20T21:58:47.445Z,12.60
2022-09-20T22:01:16.766Z,12.60
2022-09-20T22:04:00.038Z,12.60
2022-09-20T22:06:31.028Z,12.40
2022-09-20T22:09:04.248Z,12.40
2022-09-20T22:11:38.665Z,12.30
2022-09-20T22:14:06.536Z,12.40
2022-09-20T22:16:35.435Z,12.40
2022-09-20T22:19:02.225Z,12.40
2022-09-20T22:21:35.248Z,12.50
2022-09-20T22:24:04.730Z,12.40
2022-09-20T22:26:34.071Z,12.30
2022-09-20T22:29:00.966Z,12.20
2022-09-20T22:31:30.509Z,12.10
2022-09-20T22:33:59.915Z,12.10
2022-09-20T22:36:35.288Z,12.10
2022-09-20T22:39:02.801Z,11.90
2022-09-20T22:41:29.396Z,11.90
2022-09-20T22:43:56.466Z,11.90
2022-09-20T22:46:25.596Z,12.00
2022-09-20T22:48:52.190Z,11.90
2022-09-20T22:51:21.841Z,11.80
2022-09-20T22:53:48.773Z,11.80
2022-09-20T22:56:30.443Z,11.70
2022-09-20T22:59:00.313Z,11.80
2022-09-20T23:01:29.666Z,11.80
2022-09-20T23:04:00.807Z,11.80
2022-09-20T23:06:29.737Z,11.80
2022-09-20T23:08:58.768Z,11.80
2022-09-20T23:11:25.861Z,11.80
2022-09-20T23:13:55.006Z,11.80
2022-09-20T23:16:24.596Z,11.70
2022-09-20T23:18:53.941Z,11.60
2022-09-20T23:21:21.066Z,11.40
2022-09-20T23:23:51.882Z,11.50
2022-09-20T23:26:19.423Z,11.40
2022-09-20T23:28:51.540Z,11.50
2022-09-20T23:31:18.539Z,11.50
2022-09-20T23:33:50.096Z,11.60
2022-09-20T23:36:17.816Z,11.50
2022-09-20T23:38:44.922Z,11.50
2022-09-20T23:41:13.806Z,11.50
2022-09-20T23:43:41.534Z,11.50
2022-09-20T23:46:09.432Z,11.30
2022-09-20T23:48:36.571Z,11.20
2022-09-20T23:51:05.194Z,11.20
2022-09-20T23:53:32.512Z,11.10
2022-09-20T23:55:59.188Z,11.00
2022-09-20T23:58:26.012Z,11.00
